Terminal Aerodrome Forecast
Issued by NWS Wilmington, OH

Current Version | Previous Version | Graphics & Text | Print | Product List | Glossary On
Versions: 1 2 3 4 5 6 7 8 9 10 11 12 13 14 15 16 17
000
FTUS41 KILN 102330
TAFILN
TAF
KILN 102330Z 1100/1124 23008KT P6SM OVC040
     FM110400 29005KT P6SM SCT200
     FM110900 VRB03KT P6SM SCT030
     FM111400 19005KT P6SM BKN100
     FM111900 19009G18KT P6SM BKN200=

USA.gov is the U.S. government's official web portal to all federal, state and local government web resources and services.